createdAt,value
2023-01-01T00:08:22.122Z,11.07
2023-01-01T00:18:29.267Z,11.06
2023-01-01T00:28:36.283Z,11.05
2023-01-01T00:38:45.042Z,10.99
2023-01-01T00:48:52.248Z,11.04
2023-01-01T00:59:01.566Z,11.19
2023-01-01T01:09:09.831Z,11.24
2023-01-01T01:19:19.212Z,11.17
2023-01-01T01:29:24.986Z,11.16
2023-01-01T01:39:30.654Z,11.18
2023-01-01T01:49:38.237Z,11.25
2023-01-01T01:59:48.929Z,11.25
2023-01-01T02:09:56.894Z,11.26
2023-01-01T02:20:06.827Z,11.22
2023-01-01T02:30:15.780Z,11.18
2023-01-01T02:40:26.112Z,11.13
2023-01-01T02:50:34.122Z,11.08
2023-01-01T03:00:41.737Z,11.08
2023-01-01T03:10:59.816Z,11.09
2023-01-01T03:31:17.355Z,10.96
2023-01-01T03:41:22.394Z,10.96
2023-01-01T03:51:33.723Z,11.12
2023-01-01T04:01:41.908Z,11.29
2023-01-01T04:12:04.592Z,11.39
2023-01-01T04:22:11.681Z,11.55
2023-01-01T04:32:19.169Z,11.60
2023-01-01T04:42:26.339Z,11.63
2023-01-01T04:52:33.463Z,11.76
2023-01-01T05:02:40.474Z,11.80
2023-01-01T05:12:47.885Z,11.73
2023-01-01T05:22:54.813Z,11.69
2023-01-01T05:33:01.864Z,11.64
2023-01-01T05:43:07.820Z,11.59
2023-01-01T05:53:15.284Z,11.45
2023-01-01T06:03:22.710Z,11.28
2023-01-01T06:13:30.299Z,11.12
2023-01-01T06:23:37.892Z,10.97
2023-01-01T06:33:45.738Z,10.89
2023-01-01T06:43:53.054Z,10.86
2023-01-01T06:53:59.400Z,10.79
2023-01-01T07:04:07.921Z,10.65
2023-01-01T07:14:14.980Z,10.51
2023-01-01T07:24:23.187Z,10.45
2023-01-01T07:34:30.276Z,10.50
2023-01-01T07:44:37.641Z,10.52
2023-01-01T07:54:44.846Z,10.44
2023-01-01T08:04:51.876Z,10.40
2023-01-01T08:14:58.951Z,10.43
2023-01-01T08:25:04.993Z,10.67
2023-01-01T08:35:12.825Z,11.11
2023-01-01T08:45:20.117Z,11.44
2023-01-01T08:55:27.475Z,12.10
2023-01-01T09:05:34.494Z,13.12
2023-01-01T09:15:42.273Z,13.30
2023-01-01T09:25:49.314Z,13.43
2023-01-01T09:35:56.824Z,13.40
2023-01-01T09:46:07.448Z,13.32
2023-01-01T09:56:16.292Z,13.69
2023-01-01T10:06:25.453Z,14.03
2023-01-01T10:16:32.285Z,14.25
2023-01-01T10:26:41.432Z,14.38
2023-01-01T10:36:48.864Z,14.43
2023-01-01T10:46:56.852Z,14.37
2023-01-01T10:57:13.923Z,14.22
2023-01-01T11:07:20.367Z,14.17
2023-01-01T11:17:30.032Z,14.14
2023-01-01T11:27:35.238Z,14.15
2023-01-01T11:37:44.155Z,14.16
2023-01-01T11:47:52.378Z,14.14
2023-01-01T11:58:01.076Z,14.08
2023-01-01T12:08:16.126Z,14.12
2023-01-01T12:18:23.933Z,14.22
2023-01-01T12:28:30.734Z,14.28
2023-01-01T12:38:40.787Z,14.26
2023-01-01T12:49:01.955Z,14.17
2023-01-01T12:59:12.203Z,14.11
2023-01-01T13:09:20.213Z,14.08
2023-01-01T13:19:25.918Z,14.02
2023-01-01T13:29:45.912Z,13.93
2023-01-01T13:39:53.137Z,13.77
2023-01-01T13:50:14.633Z,13.56
2023-01-01T14:00:21.399Z,13.32
2023-01-01T14:10:27.236Z,13.11
2023-01-01T14:20:33.236Z,12.97
2023-01-01T14:30:45.619Z,12.78
2023-01-01T14:41:03.926Z,12.54
2023-01-01T14:51:13.595Z,12.26
2023-01-01T15:01:23.481Z,11.99
2023-01-01T15:11:30.705Z,11.79
2023-01-01T15:21:41.674Z,11.69
2023-01-01T15:31:55.896Z,11.59
2023-01-01T15:42:02.222Z,11.45
2023-01-01T15:52:17.215Z,11.29
2023-01-01T16:02:31.325Z,11.17
2023-01-01T16:12:38.927Z,11.13
2023-01-01T16:22:46.725Z,11.10
2023-01-01T16:43:01.265Z,10.90
2023-01-01T16:53:08.392Z,10.85
2023-01-01T17:03:16.274Z,10.88
2023-01-01T17:13:22.671Z,10.87
2023-01-01T17:23:28.976Z,10.77
2023-01-01T17:33:37.458Z,10.67
2023-01-01T17:43:46.949Z,10.62
2023-01-01T17:53:52.481Z,10.64
2023-01-01T18:04:01.532Z,10.64
2023-01-01T18:14:10.551Z,10.56
2023-01-01T18:24:17.658Z,10.44
2023-01-01T18:34:24.118Z,10.36
2023-01-01T18:44:32.276Z,10.36
2023-01-01T18:54:40.286Z,10.36
2023-01-01T19:04:47.782Z,10.26
2023-01-01T19:14:55.807Z,10.16
2023-01-01T19:25:19.581Z,10.12
2023-01-01T19:35:26.797Z,10.16
2023-01-01T19:45:34.446Z,10.15
2023-01-01T19:55:42.771Z,10.04
2023-01-01T20:05:50.027Z,9.98
2023-01-01T20:15:56.388Z,10.00
2023-01-01T20:26:03.836Z,10.00
2023-01-01T20:36:28.330Z,9.97
2023-01-01T20:46:38.563Z,9.91
2023-01-01T20:56:45.693Z,9.88
2023-01-01T21:06:53.321Z,9.89
2023-01-01T21:16:59.166Z,9.89
2023-01-01T21:27:03.035Z,9.83
2023-01-01T21:37:07.816Z,9.76
2023-01-01T21:47:18.935Z,9.75
2023-01-01T21:57:27.401Z,9.73
2023-01-01T22:18:17.277Z,9.62
2023-01-01T22:28:23.033Z,9.59
2023-01-01T22:38:29.756Z,9.60
2023-01-01T22:48:34.176Z,9.64
2023-01-01T22:58:41.427Z,9.69
2023-01-01T23:08:48.999Z,9.63
2023-01-01T23:18:56.086Z,9.56
2023-01-01T23:29:04.640Z,9.54
2023-01-01T23:39:11.815Z,9.51
2023-01-01T23:49:20.238Z,9.40
2023-01-01T23:59:27.338Z,9.24
